Time;durP1;ratioP1;P1;durP2;ratioP2;P2;SDS_P1;SDS_P2;PMS_P1;PMS_P2;Temp;Humidity;BMP_temperature;BMP_pressure;BME280_temperature;BME280_humidity;BME280_pressure;Samples;Min_cycle;Max_cycle;Signal;HPM_P1;HPM_P2
2022/06/18 00:00:47;;;;;;;8.00;3.70;;;22.00;21.30;;;;;;5048697;28;20447;-69
2022/06/18 00:03:13;;;;;;;9.10;4.23;;;21.80;21.40;;;;;;5048579;28;20405;-69
2022/06/18 00:05:40;;;;;;;7.97;3.67;;;21.70;35.00;;;;;;5048721;28;20444;-70
2022/06/18 00:08:19;;;;;;;5.00;4.10;;;21.70;67.10;;;;;;5047837;28;20481;-71
2022/06/18 00:10:46;;;;;;;4.03;3.63;;;21.80;99.90;;;;;;5048292;28;20417;-70
2022/06/18 00:13:39;;;;;;;4.73;3.67;;;21.70;99.90;;;;;;5048644;28;20501;-69
2022/06/18 00:16:09;;;;;;;10.83;4.10;;;21.80;99.90;;;;;;5047253;28;20421;-69
2022/06/18 00:18:35;;;;;;;9.83;4.80;;;21.80;14.40;;;;;;5046093;28;20418;-69
2022/06/18 00:21:04;;;;;;;10.93;4.90;;;21.80;23.20;;;;;;5048823;28;20456;-69
2022/06/18 00:23:29;;;;;;;10.80;4.50;;;21.70;23.10;;;;;;5047777;28;20244;-68
2022/06/18 00:25:55;;;;;;;7.40;3.97;;;21.70;23.70;;;;;;5046376;28;20416;-67
2022/06/18 00:28:30;;;;;;;5.20;3.73;;;21.70;24.10;;;;;;5027958;28;20527;-68
2022/06/18 00:30:56;;;;;;;3.80;3.37;;;21.70;24.60;;;;;;5028247;28;20214;-68
2022/06/18 00:33:23;;;;;;;5.17;3.40;;;21.70;25.60;;;;;;5028328;28;20473;-68
2022/06/18 00:35:51;;;;;;;5.40;3.70;;;21.70;25.50;;;;;;5028304;28;20175;-69
2022/06/18 00:38:30;;;;;;;4.20;3.73;;;21.60;26.00;;;;;;5027510;28;20403;-69
2022/06/18 00:40:57;;;;;;;20.10;4.90;;;21.50;26.10;;;;;;5027760;28;20503;-69
2022/06/18 00:43:45;;;;;;;11.50;4.40;;;21.40;26.90;;;;;;5028080;28;20403;-68
2022/06/18 00:47:02;;;;;;;7.20;4.30;;;21.30;27.20;;;;;;5028109;28;20490;-69
2022/06/18 00:49:48;;;;;;;9.37;4.20;;;21.20;27.60;;;;;;4994232;28;20425;-68
2022/06/18 00:52:24;;;;;;;4.57;4.13;;;21.20;28.50;;;;;;5027627;28;20464;-69
2022/06/18 00:55:05;;;;;;;5.33;3.90;;;21.20;29.60;;;;;;5028556;28;20825;-69
2022/06/18 00:57:46;;;;;;;7.07;3.83;;;21.30;29.80;;;;;;5027374;28;20828;-70
2022/06/18 01:00:20;;;;;;;7.47;4.40;;;21.30;30.10;;;;;;5044445;28;20436;-69
2022/06/18 01:02:47;;;;;;;9.70;4.93;;;21.20;29.80;;;;;;5047908;28;20420;-69
2022/06/18 01:05:17;;;;;;;12.23;4.30;;;21.20;30.00;;;;;;5048521;28;20528;-69
2022/06/18 01:07:48;;;;;;;18.83;4.27;;;21.30;31.10;;;;;;5047310;28;20928;-69
2022/06/18 01:10:19;;;;;;;17.07;4.77;;;21.20;30.50;;;;;;5047807;28;20576;-70
2022/06/18 01:12:45;;;;;;;13.03;4.20;;;21.20;30.90;;;;;;5047528;28;21242;-69
2022/06/18 01:15:12;;;;;;;9.53;4.57;;;21.10;30.00;;;;;;5048717;28;20410;-69
2022/06/18 01:17:40;;;;;;;6.10;4.47;;;21.10;30.60;;;;;;5047748;28;20198;-70
2022/06/18 01:20:09;;;;;;;5.20;3.70;;;21.10;43.60;;;;;;5047935;28;20421;-69
2022/06/18 01:23:01;;;;;;;6.90;4.53;;;21.10;30.90;;;;;;5047640;28;20409;-69
2022/06/18 01:25:28;;;;;;;9.03;4.30;;;21.20;31.00;;;;;;5047736;28;20465;-70
2022/06/18 01:27:55;;;;;;;4.27;3.87;;;21.10;30.90;;;;;;5028707;28;20414;-70
2022/06/18 01:30:25;;;;;;;7.30;4.10;;;21.10;31.10;;;;;;5027411;28;20930;-70
2022/06/18 01:32:54;;;;;;;5.30;3.93;;;21.00;31.50;;;;;;5027270;28;20536;-68
2022/06/18 01:35:21;;;;;;;9.30;4.60;;;20.90;31.10;;;;;;5027711;28;20415;-69
2022/06/18 01:37:47;;;;;;;9.03;4.30;;;20.90;31.40;;;;;;5026642;28;20503;-69
2022/06/18 01:40:19;;;;;;;23.30;5.70;;;20.90;32.10;;;;;;5028522;28;20448;-69
2022/06/18 01:42:47;;;;;;;6.37;4.00;;;20.90;32.20;;;;;;5028195;28;20474;-69
2022/06/18 01:45:24;;;;;;;4.53;4.07;;;20.80;32.40;;;;;;5028218;28;20568;-69
2022/06/18 01:48:07;;;;;;;6.90;4.80;;;20.80;32.90;;;;;;5027356;28;20387;-69
2022/06/18 01:50:45;;;;;;;5.83;3.80;;;20.80;46.30;;;;;;5027635;28;20560;-69
2022/06/18 01:53:22;;;;;;;5.70;3.50;;;20.70;34.50;;;;;;5027654;28;20402;-70
2022/06/18 01:55:59;;;;;;;5.27;3.63;;;20.60;34.50;;;;;;5027443;28;20414;-69
2022/06/18 01:58:41;;;;;;;6.50;3.63;;;20.70;35.00;;;;;;5029006;28;20875;-70
2022/06/18 02:01:24;;;;;;;5.10;3.80;;;20.70;36.30;;;;;;5047791;28;20828;-68
2022/06/18 02:03:51;;;;;;;10.70;3.87;;;20.70;36.10;;;;;;5047767;28;20503;-70
2022/06/18 02:06:17;;;;;;;7.40;4.37;;;20.70;36.30;;;;;;5047132;28;20478;-70
2022/06/18 02:08:43;;;;;;;19.30;4.80;;;20.70;36.60;;;;;;5045690;28;20504;-70
2022/06/18 02:11:12;;;;;;;12.70;5.40;;;20.60;36.10;;;;;;5046700;28;20282;-69
2022/06/18 02:13:45;;;;;;;10.17;4.83;;;20.50;36.80;;;;;;5046683;28;20433;-69
2022/06/18 02:16:16;;;;;;;11.00;4.50;;;20.50;36.10;;;;;;5046845;28;20760;-68
2022/06/18 02:18:45;;;;;;;8.90;4.60;;;20.50;36.60;;;;;;5046467;28;20390;-68
2022/06/18 02:21:13;;;;;;;17.67;4.30;;;20.50;37.10;;;;;;5030427;28;20446;-68
2022/06/18 02:23:39;;;;;;;7.00;4.43;;;20.50;37.60;;;;;;5030161;28;20505;-69
2022/06/18 02:26:07;;;;;;;12.40;5.23;;;20.40;36.90;;;;;;5031214;28;20489;-68
2022/06/18 02:28:43;;;;;;;11.03;4.23;;;20.40;37.80;;;;;;5030214;28;20659;-68
2022/06/18 02:31:17;;;;;;;10.90;5.13;;;20.40;37.90;;;;;;5031958;28;20926;-69
2022/06/18 02:33:51;;;;;;;10.77;4.60;;;20.40;37.50;;;;;;5032982;28;20391;-69
2022/06/18 02:36:30;;;;;;;10.53;6.03;;;20.30;38.80;;;;;;5031407;28;20398;-69
2022/06/18 02:39:10;;;;;;;8.70;4.40;;;20.30;37.80;;;;;;5029082;28;20482;-68
2022/06/18 02:41:40;;;;;;;11.80;4.80;;;20.30;37.90;;;;;;5029387;28;20907;-68
2022/06/18 02:44:06;;;;;;;6.50;4.57;;;20.20;38.50;;;;;;5030335;28;20477;-67
2022/06/18 02:46:32;;;;;;;8.43;4.40;;;20.30;38.80;;;;;;5030622;28;20425;-68
2022/06/18 02:49:00;;;;;;;17.63;5.20;;;20.30;40.00;;;;;;5029366;28;20391;-68
2022/06/18 02:51:27;;;;;;;14.77;4.80;;;20.30;40.60;;;;;;5030200;28;20203;-70
2022/06/18 02:53:53;;;;;;;15.57;5.37;;;20.30;41.80;;;;;;5030018;28;20903;-68
2022/06/18 02:56:18;;;;;;;17.37;5.03;;;20.30;42.00;;;;;;5028285;28;20464;-68
2022/06/18 02:58:47;;;;;;;16.00;4.17;;;20.20;42.20;;;;;;5034559;28;20240;-68
2022/06/18 03:01:15;;;;;;;20.07;5.93;;;20.10;42.70;;;;;;5049311;28;20219;-68
2022/06/18 03:03:44;;;;;;;7.53;4.27;;;20.00;43.70;;;;;;5050883;28;20819;-70
2022/06/18 03:06:10;;;;;;;20.50;5.43;;;20.00;43.40;;;;;;5051919;28;20862;-67
2022/06/18 03:08:37;;;;;;;19.50;4.77;;;20.10;44.60;;;;;;5052752;28;20528;-68
2022/06/18 03:13:48;;;;;;;11.20;4.77;;;20.00;44.80;;;;;;5053802;28;20400;-68
2022/06/18 03:16:17;;;;;;;20.63;5.70;;;19.90;45.10;;;;;;5052679;28;20414;-68
2022/06/18 03:18:44;;;;;;;7.97;4.23;;;19.90;46.10;;;;;;5051965;28;20186;-68
2022/06/18 03:21:35;;;;;;;7.07;5.03;;;19.90;46.10;;;;;;5053521;28;20928;-68
2022/06/18 03:24:01;;;;;;;25.17;6.30;;;19.80;47.00;;;;;;5049573;28;20745;-68
2022/06/18 03:26:27;;;;;;;12.70;6.00;;;19.80;48.00;;;;;;5043296;28;20470;-68
2022/06/18 03:28:53;;;;;;;31.63;6.40;;;19.80;48.70;;;;;;5028392;28;20520;-69
2022/06/18 03:31:19;;;;;;;29.50;6.37;;;19.90;49.50;;;;;;5029137;28;20423;-69
2022/06/18 03:33:46;;;;;;;15.73;5.47;;;19.90;50.40;;;;;;5029360;28;20864;-68
2022/06/18 03:36:12;;;;;;;5.13;4.63;;;19.90;51.10;;;;;;5029367;28;20189;-68
2022/06/18 03:38:38;;;;;;;12.40;5.00;;;19.90;51.50;;;;;;5028409;28;20875;-68
2022/06/18 03:41:08;;;;;;;7.30;5.03;;;19.80;52.60;;;;;;5028900;28;20537;-68
2022/06/18 03:43:34;;;;;;;5.80;4.30;;;19.80;53.60;;;;;;5029044;28;20411;-69
2022/06/18 03:46:05;;;;;;;9.53;5.00;;;19.80;54.20;;;;;;5029450;28;20407;-68
2022/06/18 03:48:54;;;;;;;7.50;4.70;;;19.80;54.30;;;;;;5028297;28;20417;-68
2022/06/18 03:51:21;;;;;;;15.10;5.33;;;19.80;55.20;;;;;;5029300;28;20465;-68
2022/06/18 03:53:48;;;;;;;16.53;5.83;;;19.90;56.60;;;;;;5028644;28;20428;-68
2022/06/18 03:56:17;;;;;;;18.20;6.10;;;19.90;56.10;;;;;;5029263;28;20399;-68
2022/06/18 03:58:43;;;;;;;23.87;6.03;;;20.00;57.30;;;;;;5033159;28;20435;-69
2022/06/18 04:01:11;;;;;;;17.23;5.43;;;19.90;56.60;;;;;;5048926;28;20429;-69
2022/06/18 04:03:36;;;;;;;14.00;5.00;;;20.00;57.20;;;;;;5048510;28;20401;-69
2022/06/18 04:06:02;;;;;;;21.97;5.80;;;20.00;57.40;;;;;;5048293;28;20498;-70
2022/06/18 04:08:28;;;;;;;26.47;6.80;;;20.00;58.30;;;;;;5047552;28;20497;-70
2022/06/18 04:10:53;;;;;;;22.93;6.50;;;20.10;59.00;;;;;;5048178;28;20187;-69
2022/06/18 04:13:19;;;;;;;16.33;5.33;;;20.20;59.70;;;;;;5048605;28;20238;-69
2022/06/18 04:15:45;;;;;;;31.23;6.37;;;20.20;59.30;;;;;;5048251;28;20698;-70
2022/06/18 04:18:15;;;;;;;30.20;6.50;;;20.20;59.60;;;;;;5046856;28;20228;-69
2022/06/18 04:20:41;;;;;;;7.77;4.60;;;20.40;60.10;;;;;;5048211;28;20190;-68
2022/06/18 04:23:07;;;;;;;25.60;7.30;;;20.40;59.30;;;;;;5048160;28;20847;-68
2022/06/18 04:25:34;;;;;;;26.43;5.80;;;20.60;60.00;;;;;;5048711;28;20464;-68
2022/06/18 04:27:59;;;;;;;18.17;6.43;;;20.70;59.00;;;;;;5029153;28;20418;-68
2022/06/18 04:30:28;;;;;;;54.60;9.40;;;20.80;59.50;;;;;;5028279;28;20433;-69
2022/06/18 04:32:54;;;;;;;15.77;6.00;;;20.90;59.50;;;;;;5028358;28;20168;-69
2022/06/18 04:35:20;;;;;;;25.27;6.40;;;20.90;58.60;;;;;;5028773;28;20444;-69
2022/06/18 04:37:46;;;;;;;11.37;5.57;;;20.90;58.30;;;;;;5027618;28;20207;-69
2022/06/18 04:40:31;;;;;;;15.67;4.83;;;21.00;58.10;;;;;;5027491;28;20212;-70
2022/06/18 04:43:03;;;;;;;22.90;5.80;;;21.00;58.10;;;;;;5027022;28;20402;-69
2022/06/18 04:45:30;;;;;;;17.07;5.77;;;21.00;58.30;;;;;;5027970;28;20510;-68
2022/06/18 04:47:56;;;;;;;31.13;6.87;;;21.10;57.40;;;;;;5027062;28;20406;-68
2022/06/18 04:50:26;;;;;;;22.87;5.47;;;21.20;57.10;;;;;;5027163;28;20441;-70
2022/06/18 04:52:51;;;;;;;35.33;6.77;;;21.40;58.00;;;;;;5025792;28;20414;-68
2022/06/18 04:55:17;;;;;;;48.77;8.27;;;21.40;59.10;;;;;;5028041;28;20414;-68
2022/06/18 04:57:43;;;;;;;9.70;5.83;;;21.50;59.70;;;;;;5027253;28;20175;-68
2022/06/18 05:00:10;;;;;;;5.47;4.93;;;21.40;60.00;;;;;;5043992;28;20209;-69
2022/06/18 05:02:36;;;;;;;6.60;6.00;;;21.30;59.60;;;;;;5047000;28;20171;-68
2022/06/18 05:05:04;;;;;;;11.73;6.43;;;21.20;59.80;;;;;;5047804;28;20467;-68
2022/06/18 05:07:30;;;;;;;10.57;4.80;;;21.40;60.30;;;;;;5047168;28;20434;-67
2022/06/18 05:09:55;;;;;;;14.23;6.13;;;21.50;60.80;;;;;;5047294;28;20445;-68
2022/06/18 05:12:21;;;;;;;13.10;5.83;;;21.40;60.10;;;;;;5047978;28;20175;-68
2022/06/18 05:14:47;;;;;;;11.17;5.70;;;21.50;60.00;;;;;;5048346;28;20201;-68
2022/06/18 05:17:19;;;;;;;8.07;5.27;;;21.50;59.80;;;;;;5047549;28;20210;-67
2022/06/18 05:19:45;;;;;;;6.57;5.53;;;21.60;59.60;;;;;;5035798;28;20682;-68
2022/06/18 05:22:11;;;;;;;24.00;6.87;;;21.50;60.00;;;;;;5027394;28;20429;-68
2022/06/18 05:24:37;;;;;;;24.10;8.03;;;21.60;59.70;;;;;;5027433;28;20452;-68
2022/06/18 05:27:03;;;;;;;28.17;7.20;;;21.90;59.60;;;;;;5026570;28;20520;-69
2022/06/18 05:29:29;;;;;;;23.77;6.53;;;22.20;60.50;;;;;;5027373;28;20262;-69
2022/06/18 05:31:55;;;;;;;14.00;6.53;;;22.60;61.40;;;;;;5026944;28;20433;-69
2022/06/18 05:34:21;;;;;;;8.97;6.23;;;22.70;59.90;;;;;;5027713;28;20225;-69
2022/06/18 05:36:47;;;;;;;10.90;5.73;;;22.80;60.30;;;;;;5027642;28;20214;-69
2022/06/18 05:39:18;;;;;;;7.10;5.87;;;22.90;59.30;;;;;;5026649;28;20438;-69
2022/06/18 05:41:44;;;;;;;10.83;6.20;;;22.70;60.90;;;;;;5028699;28;20290;-69
2022/06/18 05:44:10;;;;;;;19.53;6.40;;;22.60;61.20;;;;;;5029263;28;20450;-70
2022/06/18 05:46:37;;;;;;;12.30;6.20;;;22.70;61.60;;;;;;5028837;28;20418;-70
2022/06/18 05:49:03;;;;;;;7.70;5.87;;;22.90;61.50;;;;;;5028603;28;20195;-70
2022/06/18 05:51:28;;;;;;;7.13;5.60;;;23.00;60.80;;;;;;5030912;28;20445;-70
2022/06/18 05:53:54;;;;;;;7.30;5.63;;;23.00;59.30;;;;;;5031628;28;20309;-69
2022/06/18 05:56:20;;;;;;;8.60;6.30;;;22.90;59.00;;;;;;5032219;28;20207;-70
2022/06/18 05:58:46;;;;;;;12.23;7.10;;;22.80;58.90;;;;;;5036009;28;20201;-69
2022/06/18 06:01:12;;;;;;;23.83;8.40;;;23.10;59.50;;;;;;5051326;28;20432;-68
2022/06/18 06:03:37;;;;;;;17.77;6.03;;;23.40;77.50;;;;;;5051888;28;20174;-68
2022/06/18 06:06:03;;;;;;;25.23;7.20;;;23.70;58.40;;;;;;5051519;28;20189;-68
2022/06/18 06:08:29;;;;;;;25.47;6.90;;;23.90;57.10;;;;;;5049585;28;20243;-69
2022/06/18 06:13:39;;;;;;;18.13;6.23;;;24.30;55.40;;;;;;5051231;28;20396;-68
2022/06/18 06:16:05;;;;;;;13.57;5.87;;;24.30;53.60;;;;;;5051245;28;20949;-68
2022/06/18 06:18:32;;;;;;;11.83;6.10;;;24.40;51.20;;;;;;5050422;28;20178;-69
2022/06/18 06:21:00;;;;;;;8.30;5.20;;;24.50;50.00;;;;;;5051198;28;20195;-68
2022/06/18 06:23:26;;;;;;;7.00;5.37;;;24.50;49.10;;;;;;5050407;28;20425;-69
2022/06/18 06:25:52;;;;;;;20.40;6.40;;;24.70;48.30;;;;;;5049093;28;20525;-69
2022/06/18 06:28:27;;;;;;;14.97;6.47;;;24.70;47.00;;;;;;5030491;28;20422;-67
2022/06/18 06:30:55;;;;;;;9.33;5.43;;;;;;;;;;5031251;28;20187;-69
2022/06/18 06:33:21;;;;;;;9.00;5.57;;;25.00;33.60;;;;;;5030632;28;20736;-69
2022/06/18 06:35:48;;;;;;;14.27;5.07;;;25.00;43.60;;;;;;5031342;28;20501;-69
2022/06/18 06:38:14;;;;;;;10.70;5.23;;;25.30;42.90;;;;;;5029895;28;20413;-68
2022/06/18 06:40:42;;;;;;;18.87;6.47;;;25.40;41.70;;;;;;5030591;28;20615;-68
2022/06/18 06:43:11;;;;;;;8.07;4.70;;;25.70;40.70;;;;;;5031082;28;20424;-69
2022/06/18 06:45:37;;;;;;;9.77;4.83;;;25.90;52.20;;;;;;5031022;28;20453;-69
2022/06/18 06:48:03;;;;;;;15.00;5.80;;;25.90;37.60;;;;;;5030482;28;20496;-69
2022/06/18 06:50:30;;;;;;;7.90;4.83;;;26.00;36.10;;;;;;5030739;28;20589;-69
2022/06/18 06:52:57;;;;;;;19.43;6.07;;;26.30;35.30;;;;;;5030368;28;20405;-69
2022/06/18 06:58:10;;;;;;;8.47;4.97;;;26.40;32.00;;;;;;5030362;28;20459;-69
2022/06/18 07:00:41;;;;;;;18.63;5.80;;;26.60;30.30;;;;;;5050448;28;20433;-69
2022/06/18 07:03:08;;;;;;;32.87;6.40;;;26.80;29.60;;;;;;5050289;28;20170;-68
2022/06/18 07:05:34;;;;;;;9.00;4.40;;;27.00;29.40;;;;;;5048340;28;20771;-68
2022/06/18 07:07:59;;;;;;;8.63;5.03;;;26.70;27.90;;;;;;5049472;28;20406;-68
2022/06/18 07:10:25;;;;;;;6.30;4.63;;;26.70;26.50;;;;;;5050623;28;20243;-68
2022/06/18 07:12:51;;;;;;;25.77;6.27;;;26.90;26.40;;;;;;5050219;28;20258;-69
2022/06/18 07:15:17;;;;;;;13.83;5.30;;;27.10;25.50;;;;;;5051060;28;20197;-68
2022/06/18 07:17:43;;;;;;;17.70;5.20;;;27.00;23.30;;;;;;5049679;28;20170;-69
2022/06/18 07:20:17;;;;;;;16.90;5.50;;;27.00;22.10;;;;;;5050232;28;20477;-68
2022/06/18 07:22:43;;;;;;;7.07;4.53;;;27.20;21.80;;;;;;5048355;28;20208;-69
2022/06/18 07:25:10;;;;;;;7.00;4.60;;;27.30;20.70;;;;;;5049031;28;20941;-69
2022/06/18 07:27:37;;;;;;;10.80;5.03;;;27.50;18.40;;;;;;5033446;28;20414;-69
2022/06/18 07:30:05;;;;;;;6.90;4.60;;;27.50;16.90;;;;;;5030255;28;20421;-67
2022/06/18 07:32:31;;;;;;;14.07;4.80;;;27.60;16.00;;;;;;5029937;28;20425;-68
2022/06/18 07:34:57;;;;;;;11.67;5.50;;;27.50;14.00;;;;;;5031016;28;20406;-68
2022/06/18 07:37:23;;;;;;;17.90;5.17;;;27.40;12.70;;;;;;5030094;28;20421;-69
2022/06/18 07:39:50;;;;;;;10.50;5.17;;;27.60;12.00;;;;;;5030880;28;20216;-67
2022/06/18 07:42:18;;;;;;;25.27;5.63;;;27.70;11.00;;;;;;5045282;22;20503;-69
2022/06/18 07:44:45;;;;;;;11.77;4.87;;;27.90;10.10;;;;;;5030629;28;21095;-69
2022/06/18 07:47:16;;;;;;;14.13;6.87;;;28.00;8.80;;;;;;5029255;28;20397;-69
2022/06/18 07:49:44;;;;;;;8.13;4.57;;;28.00;8.10;;;;;;5029861;28;20413;-69
2022/06/18 07:52:15;;;;;;;12.40;5.30;;;28.00;7.80;;;;;;5029205;28;20430;-68
2022/06/18 07:54:42;;;;;;;16.57;4.60;;;28.20;7.30;;;;;;5030124;28;20386;-68
2022/06/18 07:57:08;;;;;;;13.10;4.70;;;28.30;6.70;;;;;;5029423;28;20475;-68
2022/06/18 07:59:34;;;;;;;17.33;5.30;;;28.40;16.00;;;;;;5041747;28;20520;-69
2022/06/18 08:02:00;;;;;;;12.60;5.57;;;28.50;6.40;;;;;;5049305;28;20527;-68
2022/06/18 08:04:26;;;;;;;21.70;6.13;;;28.50;4.80;;;;;;5050023;28;20194;-69
2022/06/18 08:06:52;;;;;;;10.93;5.30;;;28.40;3.90;;;;;;5048987;28;20163;-69
2022/06/18 08:09:18;;;;;;;12.90;5.03;;;28.50;4.20;;;;;;5049546;28;20777;-69
2022/06/18 08:11:44;;;;;;;8.87;5.90;;;28.50;2.90;;;;;;5049346;28;20190;-68
2022/06/18 08:14:10;;;;;;;5.37;4.67;;;28.60;3.10;;;;;;5049726;28;20799;-70
2022/06/18 08:16:36;;;;;;;20.50;6.00;;;28.80;2.70;;;;;;5049318;28;20163;-69
2022/06/18 08:19:02;;;;;;;21.13;5.47;;;28.70;2.00;;;;;;5044016;28;20429;-69
2022/06/18 08:21:36;;;;;;;8.60;4.27;;;28.90;2.30;;;;;;5029141;28;20194;-69
2022/06/18 08:24:06;;;;;;;8.20;5.00;;;28.80;1.20;;;;;;5026340;28;20260;-69
2022/06/18 08:26:33;;;;;;;14.73;4.57;;;29.00;1.80;;;;;;5027740;28;20769;-70
2022/06/18 08:29:01;;;;;;;13.03;5.53;;;29.20;2.00;;;;;;5028679;28;20909;-69
2022/06/18 08:31:27;;;;;;;8.97;4.43;;;29.00;1.10;;;;;;5029232;28;20509;-69
2022/06/18 08:33:54;;;;;;;15.73;4.93;;;28.80;1.00;;;;;;5029337;28;20406;-69
2022/06/18 08:36:19;;;;;;;11.23;4.83;;;28.80;1.00;;;;;;5028937;28;20469;-69
2022/06/18 08:38:48;;;;;;;6.53;4.40;;;28.70;1.00;;;;;;5028226;28;20907;-68
2022/06/18 08:41:32;;;;;;;10.63;4.87;;;28.80;1.00;;;;;;5028485;28;20724;-68
2022/06/18 08:43:58;;;;;;;15.87;4.93;;;29.10;1.00;;;;;;5029157;28;20758;-68
2022/06/18 08:46:48;;;;;;;15.57;5.13;;;29.30;1.00;;;;;;5028899;28;20412;-68
2022/06/18 08:49:36;;;;;;;11.57;5.10;;;29.40;1.00;;;;;;5028692;28;20181;-69
2022/06/18 08:52:35;;;;;;;20.53;5.90;;;29.30;1.00;;;;;;5028580;28;20759;-69
2022/06/18 08:55:22;;;;;;;25.03;6.17;;;29.60;1.00;;;;;;5029275;28;20445;-69
2022/06/18 08:57:59;;;;;;;15.37;5.23;;;29.90;1.00;;;;;;5028305;28;20398;-68
2022/06/18 09:00:58;;;;;;;20.10;5.33;;;29.80;1.00;;;;;;5028764;28;20490;-68
2022/06/18 09:03:51;;;;;;;10.90;4.70;;;29.60;1.00;;;;;;5028695;28;20844;-68
2022/06/18 09:06:22;;;;;;;11.23;4.93;;;29.80;1.00;;;;;;5028426;28;20414;-68
2022/06/18 09:09:26;;;;;;;4.40;4.00;;;29.80;1.00;;;;;;5027989;28;20989;-69
2022/06/18 09:11:55;;;;;;;12.97;5.43;;;29.90;1.00;;;;;;5028124;28;20483;-68
2022/06/18 09:14:33;;;;;;;43.67;7.63;;;29.80;1.00;;;;;;5029145;28;20887;-69
2022/06/18 09:17:05;;;;;;;49.97;8.10;;;30.10;1.00;;;;;;5028174;28;20405;-69
2022/06/18 09:19:32;;;;;;;11.40;5.20;;;30.10;1.00;;;;;;5028403;28;20401;-69
2022/06/18 09:22:01;;;;;;;4.63;4.10;;;29.80;1.00;;;;;;5028010;28;20509;-69
2022/06/18 09:24:34;;;;;;;7.20;4.73;;;29.80;1.00;;;;;;5027361;28;20461;-69
2022/06/18 09:27:06;;;;;;;13.17;5.87;;;29.90;1.00;;;;;;5027192;28;21104;-69
2022/06/18 09:29:48;;;;;;;8.10;4.13;;;30.00;1.00;;;;;;5026748;28;20778;-69
2022/06/18 09:32:24;;;;;;;16.77;4.20;;;30.20;1.00;;;;;;5027575;28;20422;-69
2022/06/18 09:35:01;;;;;;;11.80;4.83;;;30.40;1.00;;;;;;5028222;28;20409;-69
2022/06/18 09:37:43;;;;;;;15.13;5.43;;;30.30;1.00;;;;;;5028090;28;20808;-68
2022/06/18 09:40:34;;;;;;;4.50;4.03;;;30.20;1.00;;;;;;5028050;28;20460;-70
2022/06/18 09:43:28;;;;;;;10.50;4.60;;;30.00;1.00;;;;;;5038835;28;20505;-69
2022/06/18 09:45:58;;;;;;;28.53;7.33;;;30.20;1.00;;;;;;5025985;28;21387;-68
2022/06/18 09:48:24;;;;;;;12.10;4.80;;;30.30;1.00;;;;;;5026593;28;20488;-68
2022/06/18 09:50:54;;;;;;;8.07;4.80;;;30.30;1.00;;;;;;5027640;28;21066;-68
2022/06/18 09:53:36;;;;;;;4.30;4.00;;;30.10;1.00;;;;;;5027489;28;20477;-69
2022/06/18 09:56:13;;;;;;;13.13;4.57;;;30.00;1.00;;;;;;5027376;28;20421;-68
2022/06/18 09:58:51;;;;;;;5.70;3.83;;;30.10;1.00;;;;;;5023431;28;20511;-68
2022/06/18 10:01:44;;;;;;;4.63;3.97;;;30.00;1.00;;;;;;5047753;28;20421;-68
2022/06/18 10:07:06;;;;;;;5.50;4.80;;;29.90;1.00;;;;;;5047140;28;20728;-68
2022/06/18 10:09:38;;;;;;;12.03;4.87;;;30.20;1.00;;;;;;5047547;28;20447;-69
2022/06/18 10:12:31;;;;;;;7.00;4.57;;;30.30;1.00;;;;;;5046931;28;20875;-69
2022/06/18 10:15:03;;;;;;;5.57;4.03;;;30.40;1.00;;;;;;5047968;28;20385;-68
2022/06/18 10:17:59;;;;;;;5.23;4.27;;;30.50;1.00;;;;;;5045729;28;20623;-69
2022/06/18 10:20:43;;;;;;;10.43;4.43;;;30.60;1.00;;;;;;5048221;28;20405;-68
2022/06/18 10:23:40;;;;;;;5.50;4.80;;;30.70;1.00;;;;;;5044301;28;20463;-68
2022/06/18 10:26:37;;;;;;;20.17;6.10;;;30.40;1.00;;;;;;5044110;28;20449;-68
2022/06/18 10:29:50;;;;;;;12.03;5.17;;;30.40;1.00;;;;;;5027289;28;20387;-68
2022/06/18 10:32:57;;;;;;;7.07;4.50;;;30.50;1.00;;;;;;4966345;28;20807;-68
2022/06/18 10:35:39;;;;;;;10.80;4.27;;;30.50;1.00;;;;;;4910072;29;20511;-69
2022/06/18 10:38:13;;;;;;;10.47;4.80;;;30.50;1.00;;;;;;4963019;28;20416;-68
2022/06/18 10:40:54;;;;;;;7.20;4.43;;;30.60;1.00;;;;;;4968421;28;20444;-68
2022/06/18 10:43:45;;;;;;;12.17;5.10;;;30.50;1.00;;;;;;4969925;28;20420;-67
2022/06/18 10:46:18;;;;;;;9.40;4.13;;;30.30;1.00;;;;;;4969718;28;20447;-68
2022/06/18 10:48:49;;;;;;;7.50;3.93;;;30.30;1.00;;;;;;4969225;28;20906;-68
2022/06/18 10:51:20;;;;;;;4.80;4.40;;;30.30;1.00;;;;;;4970605;28;20553;-67
2022/06/18 10:53:55;;;;;;;5.13;4.33;;;30.40;1.00;;;;;;4970615;28;20404;-70
2022/06/18 10:56:26;;;;;;;7.90;3.80;;;30.60;1.00;;;;;;4970340;28;20412;-68
2022/06/18 10:58:55;;;;;;;10.40;4.70;;;30.70;1.00;;;;;;4970737;28;20417;-68
2022/06/18 11:01:26;;;;;;;9.83;4.43;;;30.80;1.00;;;;;;4971019;28;20486;-68
2022/06/18 11:03:57;;;;;;;10.10;4.40;;;30.70;1.00;;;;;;5005067;28;20426;-71
2022/06/18 11:06:23;;;;;;;5.17;3.87;;;30.60;1.00;;;;;;5012698;28;20402;-68
2022/06/18 11:08:56;;;;;;;11.17;4.40;;;30.30;1.00;;;;;;5012905;28;20785;-68
2022/06/18 11:11:25;;;;;;;4.53;3.60;;;30.10;1.00;;;;;;5011651;28;20427;-68
2022/06/18 11:13:51;;;;;;;4.93;4.33;;;30.10;1.00;;;;;;5011206;28;20403;-68
2022/06/18 11:16:29;;;;;;;5.60;4.60;;;30.30;1.00;;;;;;5011486;28;20420;-68
2022/06/18 11:19:01;;;;;;;8.57;4.13;;;30.50;1.00;;;;;;5013382;28;20212;-69
2022/06/18 11:21:35;;;;;;;14.77;3.50;;;30.50;1.00;;;;;;5030614;28;20906;-68
2022/06/18 11:24:13;;;;;;;13.43;3.47;;;30.40;1.00;;;;;;5030492;28;20455;-68
2022/06/18 11:26:49;;;;;;;4.73;3.80;;;30.60;1.00;;;;;;5030204;28;20491;-69
2022/06/18 11:29:35;;;;;;;4.77;4.37;;;30.60;1.00;;;;;;5029994;28;20492;-69
2022/06/18 11:32:26;;;;;;;4.03;3.17;;;30.50;1.00;;;;;;5029510;28;20421;-69
2022/06/18 11:35:14;;;;;;;11.00;4.37;;;30.20;1.00;;;;;;5030686;28;20835;-69
2022/06/18 11:37:43;;;;;;;18.90;5.40;;;30.50;1.00;;;;;;5023381;28;20518;-68
2022/06/18 11:40:11;;;;;;;7.97;3.40;;;30.60;1.00;;;;;;5030896;28;20829;-69
2022/06/18 11:42:43;;;;;;;30.37;5.73;;;30.70;1.00;;;;;;5028919;28;20477;-69
2022/06/18 11:45:28;;;;;;;20.97;5.73;;;30.90;1.00;;;;;;5029775;28;20553;-68
2022/06/18 11:48:14;;;;;;;34.77;4.87;;;30.80;1.00;;;;;;5030140;28;20221;-66
2022/06/18 11:50:43;;;;;;;10.10;4.00;;;30.80;1.00;;;;;;5030081;28;20788;-69
2022/06/18 11:53:16;;;;;;;13.20;4.10;;;30.70;1.00;;;;;;5029971;28;20456;-69
2022/06/18 11:55:50;;;;;;;7.30;3.80;;;30.60;1.00;;;;;;5029808;28;20690;-69
2022/06/18 11:58:37;;;;;;;4.50;3.10;;;30.60;1.00;;;;;;5029871;28;20413;-70
2022/06/18 12:01:40;;;;;;;4.80;3.30;;;30.60;1.00;;;;;;5049886;28;20417;-69
2022/06/18 12:04:35;;;;;;;8.37;3.50;;;;;;;;;;5049400;28;20400;-70
2022/06/18 12:07:11;;;;;;;10.93;3.60;;;30.70;52.10;;;;;;5043838;28;20427;-68
2022/06/18 12:09:37;;;;;;;6.80;3.63;;;30.80;61.80;;;;;;5049474;28;20412;-68
2022/06/18 12:12:18;;;;;;;6.53;4.27;;;31.00;60.00;;;;;;5048743;28;20425;-66
2022/06/18 12:14:51;;;;;;;9.10;4.10;;;31.20;62.80;;;;;;5049681;28;20768;-68
2022/06/18 12:17:20;;;;;;;14.77;4.87;;;31.20;63.20;;;;;;5048357;28;20261;-68
2022/06/18 12:20:14;;;;;;;11.97;4.00;;;31.40;61.70;;;;;;5049089;28;20167;-66
2022/06/18 12:22:46;;;;;;;15.77;4.30;;;31.40;58.50;;;;;;5046879;28;20708;-68
2022/06/18 12:25:29;;;;;;;14.53;4.70;;;31.50;58.80;;;;;;5049017;28;20975;-69
2022/06/18 12:28:23;;;;;;;14.10;4.80;;;31.50;59.10;;;;;;5030511;28;20155;-67
2022/06/18 12:31:09;;;;;;;14.57;5.00;;;31.60;62.10;;;;;;5001782;28;20210;-70
2022/06/18 12:34:00;;;;;;;24.27;5.80;;;31.70;65.30;;;;;;5028949;28;20183;-69
2022/06/18 12:36:53;;;;;;;27.50;5.50;;;31.70;67.80;;;;;;5029041;28;20162;-67
2022/06/18 12:39:35;;;;;;;11.20;4.73;;;31.60;70.80;;;;;;5028922;28;20215;-69
2022/06/18 12:42:11;;;;;;;13.60;4.50;;;31.60;74.20;;;;;;5028091;28;20222;-68
2022/06/18 12:45:10;;;;;;;9.63;4.50;;;31.60;73.70;;;;;;5029509;28;20457;-68
2022/06/18 12:48:06;;;;;;;11.60;4.80;;;31.40;99.90;;;;;;5027859;28;20245;-67
2022/06/18 12:50:43;;;;;;;11.10;4.27;;;31.40;99.90;;;;;;5028437;28;20258;-69
2022/06/18 12:53:18;;;;;;;13.27;4.10;;;31.40;99.90;;;;;;5028468;28;20824;-67
2022/06/18 12:56:14;;;;;;;22.57;5.30;;;31.40;99.90;;;;;;5028316;28;20174;-69
2022/06/18 12:58:54;;;;;;;12.50;4.70;;;31.40;99.90;;;;;;5024470;28;20208;-69
2022/06/18 13:01:24;;;;;;;11.37;4.83;;;31.50;99.90;;;;;;5048286;28;20204;-68
2022/06/18 13:04:17;;;;;;;10.20;4.20;;;31.40;99.90;;;;;;5047677;28;20223;-69
2022/06/18 13:06:56;;;;;;;22.47;5.23;;;31.30;99.90;;;;;;5049113;28;20194;-67
2022/06/18 13:09:38;;;;;;;8.47;4.47;;;31.30;99.90;;;;;;5048466;28;20257;-67
2022/06/18 13:12:15;;;;;;;5.37;3.93;;;31.20;99.90;;;;;;5048192;28;20186;-67
2022/06/18 13:14:59;;;;;;;11.30;4.60;;;31.20;99.90;;;;;;5049447;28;20258;-67
2022/06/18 13:17:34;;;;;;;10.33;4.63;;;;;;;;;;5048195;28;20281;-67
2022/06/18 13:20:22;;;;;;;9.43;4.60;;;31.20;1.00;;;;;;5049070;28;20404;-68
2022/06/18 13:22:48;;;;;;;6.87;4.10;;;31.30;1.00;;;;;;5046826;28;20155;-68
2022/06/18 13:28:22;;;;;;;7.33;4.93;;;31.30;1.00;;;;;;5029463;28;20170;-69